createdAt,value
2018-07-02T00:00:32.155Z,228.83
2018-07-02T00:02:34.116Z,227.95
2018-07-02T00:04:36.118Z,224.88
2018-07-02T00:06:38.524Z,217.85
2018-07-02T00:08:40.517Z,213.72
2018-07-02T00:10:42.488Z,209.87
2018-07-02T00:12:44.467Z,198.93
2018-07-02T00:14:46.864Z,199.77
2018-07-02T00:16:48.761Z,202.82
2018-07-02T00:18:50.742Z,186.47
2018-07-02T00:20:52.716Z,184.13
2018-07-02T00:22:54.706Z,179.05
2018-07-02T00:24:56.682Z,178.07
2018-07-02T00:26:58.650Z,175.30
2018-07-02T00:29:00.613Z,173.13
2018-07-02T00:31:02.589Z,168.60
2018-07-02T00:33:04.565Z,164.62
2018-07-02T00:35:06.543Z,157.35
2018-07-02T00:37:08.543Z,147.93
2018-07-02T00:39:10.497Z,148.13
2018-07-02T00:41:12.762Z,144.00
2018-07-02T00:43:14.741Z,145.28
2018-07-02T00:45:16.732Z,150.10
2018-07-02T00:47:18.716Z,143.05
2018-07-02T00:49:20.688Z,141.28
2018-07-02T00:51:22.681Z,139.28
2018-07-02T00:53:24.667Z,138.57
2018-07-02T00:55:26.637Z,138.03
2018-07-02T00:57:28.842Z,129.82
2018-07-02T00:59:30.815Z,132.80
2018-07-02T01:01:32.789Z,124.45
2018-07-02T01:03:34.770Z,125.02
2018-07-02T01:05:36.748Z,125.35
2018-07-02T01:07:38.740Z,118.80
2018-07-02T01:09:40.721Z,116.80
2018-07-02T01:11:42.678Z,120.17
2018-07-02T01:13:44.662Z,112.47
2018-07-02T01:15:46.652Z,113.65
2018-07-02T01:17:48.629Z,110.25
2018-07-02T01:19:50.602Z,109.75
2018-07-02T01:21:52.560Z,112.22
2018-07-02T01:23:54.562Z,105.50
2018-07-02T01:25:56.532Z,100.22
2018-07-02T01:27:58.506Z,104.30
2018-07-02T01:30:00.874Z,98.03
2018-07-02T01:32:03.225Z,100.15
2018-07-02T01:34:05.076Z,95.47
2018-07-02T01:36:07.054Z,93.97
2018-07-02T01:38:09.012Z,94.30
2018-07-02T01:40:11.006Z,90.12
2018-07-02T01:42:12.961Z,91.97
2018-07-02T01:44:14.976Z,88.33
2018-07-02T01:46:17.206Z,89.47
2018-07-02T01:48:19.202Z,80.32
2018-07-02T01:50:21.182Z,80.77
2018-07-02T01:52:23.146Z,76.53
2018-07-02T01:54:25.111Z,77.55
2018-07-02T01:56:27.106Z,75.08
2018-07-02T01:58:29.068Z,72.42
2018-07-02T02:00:31.392Z,73.35
2018-07-02T02:02:33.362Z,70.30
2018-07-02T02:04:35.324Z,73.87
2018-07-02T02:06:37.292Z,69.10
2018-07-02T02:08:39.266Z,69.07
2018-07-02T02:10:41.266Z,69.90
2018-07-02T02:12:43.311Z,66.60
2018-07-02T02:14:45.276Z,63.95
2018-07-02T02:16:47.253Z,63.02
2018-07-02T02:18:49.226Z,59.38
2018-07-02T02:20:51.174Z,59.65
2018-07-02T02:22:53.212Z,58.83
2018-07-02T02:24:55.100Z,59.70
2018-07-02T02:26:57.088Z,57.13
2018-07-02T02:28:59.052Z,55.75
2018-07-02T02:31:01.018Z,53.45
2018-07-02T02:33:02.976Z,53.90
2018-07-02T02:35:04.947Z,52.88
2018-07-02T02:37:06.925Z,51.02
2018-07-02T02:39:08.974Z,50.25
2018-07-02T02:41:10.941Z,47.70
2018-07-02T02:43:12.910Z,48.83
2018-07-02T02:45:14.878Z,46.33
2018-07-02T02:47:16.858Z,48.45
2018-07-02T02:49:19.174Z,44.03
2018-07-02T02:51:21.130Z,44.93
2018-07-02T02:53:23.367Z,45.15
2018-07-02T02:55:25.325Z,43.73
2018-07-02T02:57:27.289Z,42.33
2018-07-02T02:59:29.279Z,40.88
2018-07-02T03:01:31.263Z,42.70
2018-07-02T03:03:33.241Z,40.70
2018-07-02T03:05:35.209Z,41.25
2018-07-02T03:07:37.181Z,39.65
2018-07-02T03:09:39.181Z,39.18
2018-07-02T03:11:41.150Z,38.10
2018-07-02T03:13:43.129Z,39.25
2018-07-02T03:15:45.097Z,37.67
2018-07-02T03:17:47.066Z,35.80
2018-07-02T03:19:49.034Z,34.53
2018-07-02T03:21:50.998Z,34.70
2018-07-02T03:23:52.959Z,32.60
2018-07-02T03:25:54.937Z,32.60
2018-07-02T03:27:56.899Z,33.55
2018-07-02T03:29:58.873Z,32.53
2018-07-02T03:32:00.832Z,29.82
2018-07-02T03:34:02.813Z,28.52
2018-07-02T03:36:04.772Z,29.70
2018-07-02T03:38:06.723Z,31.73
2018-07-02T03:40:09.087Z,29.40
2018-07-02T03:42:10.949Z,29.45
2018-07-02T03:44:12.921Z,29.30
2018-07-02T03:46:14.880Z,262.80
2018-07-02T03:48:17.119Z,240.03
2018-07-02T03:50:19.092Z,35.92
2018-07-02T03:52:21.052Z,69.53
2018-07-02T03:54:23.027Z,184.82
2018-07-02T03:56:24.987Z,157.72
2018-07-02T03:58:26.968Z,23.87
2018-07-02T04:00:29.044Z,201.50
2018-07-02T04:02:31.018Z,51.60
2018-07-02T04:04:32.987Z,269.60
2018-07-02T04:06:34.963Z,42.75
2018-07-02T04:08:37.321Z,7.37
2018-07-02T04:10:39.179Z,2.15
2018-07-02T04:12:41.513Z,1.62
2018-07-02T04:14:43.492Z,1.07
2018-07-02T04:16:45.432Z,1.10
2018-07-02T04:18:47.409Z,1.15
2018-07-02T04:20:49.389Z,1.70
2018-07-02T04:22:51.364Z,1.40
2018-07-02T04:24:53.352Z,1.27
2018-07-02T04:26:55.349Z,107.85
2018-07-02T04:28:57.325Z,105.95
2018-07-02T04:30:59.297Z,17.95
2018-07-02T04:33:01.250Z,4.17
2018-07-02T04:35:03.235Z,214.82
2018-07-02T04:37:05.199Z,229.60
2018-07-02T04:39:07.175Z,66.57
2018-07-02T04:41:09.427Z,24.47
2018-07-02T04:43:11.412Z,7.05
2018-07-02T04:45:13.397Z,3.52
2018-07-02T04:47:15.765Z,9.78
2018-07-02T04:49:17.735Z,14.10
2018-07-02T04:51:19.712Z,16.23
2018-07-02T04:53:21.923Z,19.92
2018-07-02T04:55:23.905Z,21.95
2018-07-02T04:57:25.871Z,28.90
2018-07-02T04:59:27.831Z,31.02
2018-07-02T05:01:29.787Z,36.45
2018-07-02T05:03:31.791Z,32.85
2018-07-02T05:05:33.780Z,33.78
2018-07-02T05:07:35.757Z,33.80
2018-07-02T05:09:37.713Z,31.60
2018-07-02T05:11:39.677Z,30.20
2018-07-02T05:13:41.653Z,27.73
2018-07-02T05:15:43.610Z,29.35
2018-07-02T05:17:45.570Z,27.52
2018-07-02T05:19:47.535Z,28.30
2018-07-02T05:21:49.499Z,26.93
2018-07-02T05:23:51.465Z,27.52
2018-07-02T05:25:53.447Z,27.00
2018-07-02T05:27:55.439Z,25.77
2018-07-02T05:29:57.363Z,26.17
2018-07-02T05:31:59.439Z,27.37
2018-07-02T05:34:01.397Z,23.87
2018-07-02T05:36:03.349Z,24.32
2018-07-02T05:38:05.322Z,23.75
2018-07-02T05:40:07.287Z,22.42
2018-07-02T05:42:09.269Z,22.13
2018-07-02T05:44:11.221Z,20.32
2018-07-02T05:46:13.209Z,20.80
2018-07-02T05:48:15.604Z,19.27
2018-07-02T05:50:17.575Z,19.62
2018-07-02T05:52:19.561Z,19.00
2018-07-02T05:54:21.509Z,19.75
2018-07-02T05:56:23.489Z,19.15
2018-07-02T05:58:25.457Z,18.48
2018-07-02T06:00:27.504Z,17.87
2018-07-02T06:02:29.400Z,17.20
2018-07-02T06:04:31.405Z,17.52
2018-07-02T06:06:33.355Z,16.85
2018-07-02T06:08:35.326Z,16.55
2018-07-02T06:10:37.281Z,15.80
2018-07-02T06:12:39.265Z,14.53
2018-07-02T06:14:41.239Z,15.15
2018-07-02T06:16:43.177Z,13.68
2018-07-02T06:18:45.157Z,14.73
2018-07-02T06:20:47.142Z,14.60
2018-07-02T06:22:49.101Z,14.53
2018-07-02T06:24:51.090Z,13.78
2018-07-02T06:26:53.056Z,13.72
2018-07-02T06:28:55.031Z,13.25
2018-07-02T06:30:57.002Z,13.48
2018-07-02T06:32:58.964Z,12.18
2018-07-02T06:35:00.943Z,12.85
2018-07-02T06:37:03.288Z,11.97
2018-07-02T06:39:05.133Z,11.12
2018-07-02T06:41:07.096Z,11.70
2018-07-02T06:43:09.457Z,12.00
2018-07-02T06:45:11.304Z,11.85
2018-07-02T06:47:13.273Z,10.78
2018-07-02T06:49:15.248Z,9.48
2018-07-02T06:51:17.212Z,9.90
2018-07-02T06:53:19.161Z,9.38
2018-07-02T06:55:21.146Z,9.55
2018-07-02T06:57:23.113Z,9.70
2018-07-02T06:59:25.068Z,9.48
2018-07-02T07:01:27.047Z,10.23
2018-07-02T07:03:29.024Z,10.48
2018-07-02T07:05:30.988Z,9.90
2018-07-02T07:07:32.964Z,9.33
2018-07-02T07:09:34.933Z,8.40
2018-07-02T07:11:36.880Z,9.28
2018-07-02T07:13:38.810Z,7.83
2018-07-02T07:15:40.881Z,7.30
2018-07-02T07:17:42.766Z,7.83
2018-07-02T07:19:44.716Z,5.90
2018-07-02T07:21:46.676Z,6.08
2018-07-02T07:23:48.628Z,6.62
2018-07-02T07:25:50.679Z,6.35
2018-07-02T07:27:52.578Z,6.05
2018-07-02T07:29:54.520Z,5.85
2018-07-02T07:31:56.863Z,5.08
2018-07-02T07:33:58.711Z,5.05
2018-07-02T07:36:00.666Z,4.53
2018-07-02T07:38:02.638Z,3.27
2018-07-02T07:40:04.614Z,4.17
2018-07-02T07:42:06.588Z,4.37
2018-07-02T07:44:08.561Z,4.40
2018-07-02T07:46:10.928Z,4.28
2018-07-02T07:48:12.888Z,4.65
2018-07-02T07:50:14.850Z,4.45
2018-07-02T07:52:16.810Z,4.20
2018-07-02T07:54:18.770Z,3.70
2018-07-02T07:56:20.724Z,3.45
2018-07-02T07:58:22.708Z,3.45
2018-07-02T08:00:24.650Z,3.33
2018-07-02T08:02:26.604Z,3.40
2018-07-02T08:04:28.588Z,3.52
2018-07-02T08:06:30.539Z,3.67
2018-07-02T08:08:32.496Z,3.52
2018-07-02T08:10:34.512Z,2.90
2018-07-02T08:12:36.449Z,2.98
2018-07-02T08:14:38.398Z,2.95
2018-07-02T08:16:40.349Z,3.20
2018-07-02T08:18:42.305Z,2.72
2018-07-02T08:20:44.282Z,2.70
2018-07-02T08:22:46.239Z,2.98
2018-07-02T08:24:48.190Z,2.62
2018-07-02T08:26:50.141Z,2.75
2018-07-02T08:28:52.112Z,2.72
2018-07-02T08:30:54.058Z,2.42
2018-07-02T08:32:56.046Z,2.95
2018-07-02T08:34:58.002Z,1.82
2018-07-02T08:36:59.996Z,2.22
2018-07-02T08:39:01.949Z,2.22
2018-07-02T08:41:03.898Z,2.20
2018-07-02T08:43:05.866Z,2.20
2018-07-02T08:45:07.807Z,1.95
2018-07-02T08:47:09.772Z,2.10
2018-07-02T08:49:11.718Z,2.20
2018-07-02T08:51:13.964Z,2.45
2018-07-02T08:53:15.923Z,2.30
2018-07-02T08:55:17.886Z,2.33
2018-07-02T08:57:19.840Z,2.05
2018-07-02T08:59:21.791Z,1.90
2018-07-02T09:01:23.776Z,2.08
2018-07-02T09:03:25.727Z,1.87
2018-07-02T09:05:27.678Z,1.45
2018-07-02T09:07:29.638Z,1.60
2018-07-02T09:09:31.822Z,1.60
2018-07-02T09:11:33.592Z,1.22
2018-07-02T09:13:35.545Z,1.27
2018-07-02T09:15:37.526Z,1.62
2018-07-02T09:17:39.500Z,1.80
2018-07-02T09:19:41.885Z,1.70
2018-07-02T09:21:43.850Z,1.27
2018-07-02T09:23:45.836Z,1.40
2018-07-02T09:25:47.783Z,1.50
2018-07-02T09:27:49.761Z,1.70
2018-07-02T09:29:51.751Z,1.52
2018-07-02T09:31:53.689Z,1.42
2018-07-02T09:33:55.723Z,1.60
2018-07-02T09:35:57.693Z,1.75
2018-07-02T09:37:59.639Z,1.10
2018-07-02T09:40:01.601Z,1.47
2018-07-02T09:42:03.553Z,1.40
2018-07-02T09:44:05.504Z,1.60
2018-07-02T09:46:07.487Z,1.10
2018-07-02T09:48:09.437Z,1.30
2018-07-02T09:50:11.385Z,1.27
2018-07-02T09:52:13.369Z,1.45
2018-07-02T09:54:15.329Z,1.02
2018-07-02T09:56:17.550Z,0.88
2018-07-02T09:58:19.308Z,1.20
2018-07-02T10:00:21.258Z,0.95
2018-07-02T10:02:23.223Z,1.10
2018-07-02T10:04:25.185Z,1.40
2018-07-02T10:06:27.228Z,1.12
2018-07-02T10:08:29.110Z,1.30
2018-07-02T10:10:31.080Z,1.20
2018-07-02T10:12:33.070Z,1.10
2018-07-02T10:14:35.012Z,1.10
2018-07-02T10:16:36.970Z,1.10
2018-07-02T10:18:38.943Z,1.10
2018-07-02T10:20:40.886Z,1.10
2018-07-02T10:22:42.864Z,1.10
2018-07-02T10:24:44.814Z,0.90
2018-07-02T10:26:46.767Z,1.00
2018-07-02T10:28:48.745Z,1.00
2018-07-02T10:30:50.758Z,1.00
2018-07-02T10:32:52.660Z,1.22
2018-07-02T10:34:54.646Z,1.20
2018-07-02T10:36:56.599Z,1.00
2018-07-02T10:38:58.601Z,0.90
2018-07-02T10:41:00.554Z,1.27
2018-07-02T10:43:02.901Z,1.10
2018-07-02T10:45:04.878Z,0.80
2018-07-02T10:47:06.888Z,0.98
2018-07-02T10:49:08.809Z,1.00
2018-07-02T10:51:10.782Z,0.90
2018-07-02T10:53:12.725Z,0.78
2018-07-02T10:55:14.710Z,0.95
2018-07-02T10:57:16.655Z,0.80
2018-07-02T10:59:18.643Z,1.05
2018-07-02T11:01:20.615Z,1.37
2018-07-02T11:03:22.577Z,0.90
2018-07-02T11:05:24.567Z,0.93
2018-07-02T11:07:26.518Z,0.80
2018-07-02T11:09:28.461Z,0.90
2018-07-02T11:11:30.436Z,0.70
2018-07-02T11:13:32.393Z,0.95
2018-07-02T11:15:35.310Z,0.70
2018-07-02T11:17:37.268Z,0.80
2018-07-02T11:19:39.243Z,0.88
2018-07-02T11:21:41.189Z,0.80
2018-07-02T11:23:43.197Z,0.75
2018-07-02T11:25:45.177Z,0.85
2018-07-02T11:27:47.115Z,0.60
2018-07-02T11:29:49.073Z,0.70
2018-07-02T11:31:51.053Z,0.55
2018-07-02T11:33:53.013Z,0.82
2018-07-02T11:35:54.985Z,0.93
2018-07-02T11:37:56.949Z,0.70
2018-07-02T11:39:58.911Z,0.88
2018-07-02T11:42:00.883Z,0.93
2018-07-02T11:44:02.845Z,0.80
2018-07-02T11:46:04.803Z,0.70
2018-07-02T11:48:06.765Z,0.82
2018-07-02T11:50:08.730Z,0.75
2018-07-02T11:52:10.702Z,0.80
2018-07-02T11:54:12.656Z,0.70
2018-07-02T11:56:14.621Z,0.80
2018-07-02T11:58:16.650Z,0.88
2018-07-02T12:00:18.599Z,0.90
2018-07-02T12:02:20.580Z,0.55
2018-07-02T12:04:22.532Z,0.50
2018-07-02T12:06:24.493Z,0.60
2018-07-02T12:08:26.445Z,0.65
2018-07-02T12:10:28.405Z,0.62
2018-07-02T12:12:30.367Z,0.60
2018-07-02T12:14:32.326Z,0.50
2018-07-02T12:16:34.270Z,0.50
2018-07-02T12:18:36.254Z,0.80
2018-07-02T12:20:38.211Z,0.70
2018-07-02T12:22:40.178Z,0.60
2018-07-02T12:24:42.135Z,0.80
2018-07-02T12:26:44.083Z,0.55
2018-07-02T12:28:46.443Z,0.65
2018-07-02T12:30:48.418Z,0.68
2018-07-02T12:32:50.381Z,0.78
2018-07-02T12:34:52.340Z,0.50
2018-07-02T12:36:54.306Z,0.50
2018-07-02T12:38:56.273Z,0.80
2018-07-02T12:40:58.241Z,0.70
2018-07-02T12:43:00.216Z,0.70
2018-07-02T12:45:02.179Z,0.70
2018-07-02T12:47:04.356Z,0.60
2018-07-02T12:49:06.306Z,0.60
2018-07-02T12:51:08.271Z,0.60
2018-07-02T12:53:10.222Z,0.50
2018-07-02T12:55:12.182Z,0.70
2018-07-02T12:57:14.142Z,0.70
2018-07-02T12:59:16.546Z,0.45
2018-07-02T13:01:18.375Z,0.50
2018-07-02T13:03:20.333Z,0.70
2018-07-02T13:05:22.268Z,0.50
2018-07-02T13:07:24.234Z,0.50
2018-07-02T13:09:26.180Z,0.80
2018-07-02T13:11:28.144Z,0.60
2018-07-02T13:13:30.177Z,0.68
2018-07-02T13:15:32.078Z,0.42
2018-07-02T13:17:34.057Z,0.60
2018-07-02T13:19:36.018Z,0.60
2018-07-02T13:21:37.973Z,0.45
2018-07-02T13:23:39.957Z,0.60
2018-07-02T13:25:41.902Z,0.65
2018-07-02T13:27:43.849Z,0.50
2018-07-02T13:29:45.826Z,0.40
2018-07-02T13:31:47.789Z,0.75
2018-07-02T13:33:49.758Z,0.85
2018-07-02T13:35:51.720Z,0.55
2018-07-02T13:37:53.670Z,0.50
2018-07-02T13:39:55.633Z,0.70
2018-07-02T13:41:57.596Z,0.40
2018-07-02T13:43:59.541Z,0.50
2018-07-02T13:46:01.499Z,0.60
2018-07-02T13:48:03.454Z,0.65
2018-07-02T13:50:05.489Z,0.50
2018-07-02T13:52:07.442Z,0.62
2018-07-02T13:54:09.402Z,0.50
2018-07-02T13:56:11.386Z,0.40
2018-07-02T13:58:13.347Z,0.53
2018-07-02T14:00:15.377Z,0.40
2018-07-02T14:02:17.702Z,0.57
2018-07-02T14:04:19.640Z,0.68
2018-07-02T14:06:21.608Z,0.53
2018-07-02T14:08:23.565Z,0.60
2018-07-02T14:10:25.515Z,0.50
2018-07-02T14:12:27.483Z,0.60
2018-07-02T14:14:29.441Z,0.72
2018-07-02T14:16:31.392Z,0.60
2018-07-02T14:18:33.338Z,0.30
2018-07-02T14:20:35.308Z,0.40
2018-07-02T14:22:37.309Z,0.70
2018-07-02T14:24:39.253Z,0.60
2018-07-02T14:26:41.206Z,0.40
2018-07-02T14:28:43.172Z,0.50
2018-07-02T14:30:45.126Z,0.53
2018-07-02T14:32:47.154Z,0.60
2018-07-02T14:34:49.061Z,0.70
2018-07-02T14:36:51.040Z,0.60
2018-07-02T14:38:52.970Z,0.50
2018-07-02T14:40:54.947Z,0.40
2018-07-02T14:42:56.911Z,0.78
2018-07-02T14:44:58.959Z,0.40
2018-07-02T14:47:00.867Z,0.50
2018-07-02T14:49:02.818Z,0.70
2018-07-02T14:51:04.819Z,0.50
2018-07-02T14:53:07.011Z,0.60
2018-07-02T14:55:08.992Z,0.50
2018-07-02T14:57:10.951Z,0.60
2018-07-02T14:59:12.919Z,0.50
2018-07-02T15:01:14.885Z,0.47
2018-07-02T15:03:16.863Z,0.60
2018-07-02T15:05:18.825Z,0.70
2018-07-02T15:07:20.785Z,0.53
2018-07-02T15:09:22.755Z,0.62
2018-07-02T15:11:24.723Z,0.60
2018-07-02T15:13:26.699Z,0.45
2018-07-02T15:15:29.060Z,0.53
2018-07-02T15:17:30.883Z,0.88
2018-07-02T15:19:32.877Z,0.45
2018-07-02T15:21:34.820Z,0.47
2018-07-02T15:23:36.786Z,0.55
2018-07-02T15:25:38.758Z,0.60
2018-07-02T15:27:41.103Z,0.55
2018-07-02T15:29:42.951Z,0.57
2018-07-02T15:31:44.918Z,0.50
2018-07-02T15:33:46.898Z,0.60
2018-07-02T15:35:48.873Z,0.60
2018-07-02T15:37:50.886Z,0.70
2018-07-02T15:39:52.858Z,0.50
2018-07-02T15:41:54.867Z,0.50
2018-07-02T15:43:56.775Z,0.60
2018-07-02T15:45:58.738Z,0.53
2018-07-02T15:48:00.683Z,0.60
2018-07-02T15:50:02.661Z,0.70
2018-07-02T15:52:04.631Z,0.60
2018-07-02T15:54:06.593Z,0.50
2018-07-02T15:56:08.568Z,0.60
2018-07-02T15:58:10.526Z,0.70
2018-07-02T16:00:12.502Z,0.90
2018-07-02T16:02:14.452Z,0.78
2018-07-02T16:04:16.415Z,1.00
2018-07-02T16:06:18.370Z,1.00
2018-07-02T16:08:20.335Z,0.88
2018-07-02T16:10:22.304Z,1.00
2018-07-02T16:12:24.270Z,1.00
2018-07-02T16:14:26.214Z,0.93
2018-07-02T16:16:28.230Z,0.90
2018-07-02T16:18:30.221Z,0.90
2018-07-02T16:20:32.287Z,1.20
2018-07-02T16:22:34.300Z,0.90
2018-07-02T16:24:36.176Z,1.30
2018-07-02T16:26:38.227Z,1.10
2018-07-02T16:28:40.568Z,1.00
2018-07-02T16:30:42.408Z,1.10
2018-07-02T16:32:44.351Z,1.42
2018-07-02T16:34:46.328Z,1.30
2018-07-02T16:36:48.286Z,1.15
2018-07-02T16:38:50.245Z,1.45
2018-07-02T16:40:52.560Z,1.47
2018-07-02T16:42:54.520Z,2.00
2018-07-02T16:44:56.493Z,1.70
2018-07-02T16:46:58.464Z,1.57
2018-07-02T16:49:00.430Z,1.40
2018-07-02T16:51:02.440Z,1.50
2018-07-02T16:53:04.390Z,1.67
2018-07-02T16:55:06.341Z,1.85
2018-07-02T16:57:08.298Z,2.30
2018-07-02T16:59:10.260Z,2.25
2018-07-02T17:01:12.242Z,2.58
2018-07-02T17:03:14.198Z,2.67
2018-07-02T17:05:16.137Z,2.35
2018-07-02T17:07:18.110Z,2.00
2018-07-02T17:09:20.094Z,2.35
2018-07-02T17:11:22.033Z,2.08
2018-07-02T17:13:24.090Z,2.40
2018-07-02T17:15:25.970Z,2.55
2018-07-02T17:17:27.931Z,2.10
2018-07-02T17:19:29.894Z,2.70
2018-07-02T17:21:31.883Z,2.33
2018-07-02T17:23:33.868Z,2.67
2018-07-02T17:25:35.831Z,3.00
2018-07-02T17:27:37.779Z,2.33
2018-07-02T17:29:39.736Z,2.60
2018-07-02T17:31:41.707Z,2.62
2018-07-02T17:33:44.052Z,2.55
2018-07-02T17:35:45.879Z,2.30
2018-07-02T17:37:47.848Z,2.65
2018-07-02T17:39:49.838Z,2.17
2018-07-02T17:41:51.789Z,2.60
2018-07-02T17:43:53.778Z,2.27
2018-07-02T17:45:55.740Z,2.10
2018-07-02T17:47:57.712Z,2.10
2018-07-02T17:49:59.686Z,1.80
2018-07-02T17:52:01.629Z,1.90
2018-07-02T17:54:03.611Z,2.08
2018-07-02T17:56:05.565Z,1.90
2018-07-02T17:58:07.556Z,1.87
2018-07-02T18:00:09.503Z,2.10
2018-07-02T18:02:11.475Z,2.00
2018-07-02T18:04:13.441Z,1.80
2018-07-02T18:06:15.408Z,2.60
2018-07-02T18:08:17.378Z,1.85
2018-07-02T18:10:19.352Z,1.80
2018-07-02T18:12:21.292Z,1.92
2018-07-02T18:14:23.252Z,1.50
2018-07-02T18:16:25.207Z,1.60
2018-07-02T18:18:27.178Z,1.60
2018-07-02T18:20:29.146Z,1.90
2018-07-02T18:22:31.098Z,1.80
2018-07-02T18:24:33.058Z,1.90
2018-07-02T18:26:35.022Z,1.60
2018-07-02T18:28:36.986Z,1.42
2018-07-02T18:30:38.954Z,1.30
2018-07-02T18:32:40.920Z,1.67
2018-07-02T18:34:42.893Z,1.45
2018-07-02T18:36:44.870Z,1.57
2018-07-02T18:38:46.808Z,1.80
2018-07-02T18:40:48.785Z,1.55
2018-07-02T18:42:50.832Z,1.40
2018-07-02T18:44:52.792Z,1.45
2018-07-02T18:46:54.760Z,1.82
2018-07-02T18:48:56.790Z,1.50
2018-07-02T18:50:58.722Z,1.62
2018-07-02T18:53:00.689Z,1.27
2018-07-02T18:55:02.652Z,1.40
2018-07-02T18:57:04.626Z,1.02
2018-07-02T18:59:06.608Z,1.15
2018-07-02T19:01:08.554Z,1.20
2018-07-02T19:03:10.529Z,1.12
2018-07-02T19:05:12.487Z,1.35
2018-07-02T19:07:14.461Z,1.22
2018-07-02T19:09:16.422Z,1.60
2018-07-02T19:11:18.399Z,1.60
2018-07-02T19:13:20.383Z,0.98
2018-07-02T19:15:22.355Z,1.22
2018-07-02T19:17:24.311Z,1.50
2018-07-02T19:19:26.287Z,1.30
2018-07-02T19:21:28.273Z,1.32
2018-07-02T19:23:30.248Z,1.10
2018-07-02T19:25:32.230Z,1.05
2018-07-02T19:27:34.182Z,1.15
2018-07-02T19:29:36.212Z,1.20
2018-07-02T19:31:38.130Z,0.93
2018-07-02T19:33:40.103Z,1.50
2018-07-02T19:35:42.093Z,1.20
2018-07-02T19:37:44.053Z,1.10
2018-07-02T19:39:46.031Z,1.10
2018-07-02T19:41:47.999Z,1.17
2018-07-02T19:43:49.981Z,1.05
2018-07-02T19:45:51.941Z,1.12
2018-07-02T19:47:54.324Z,1.17
2018-07-02T19:49:56.172Z,1.22
2018-07-02T19:51:58.137Z,1.25
2018-07-02T19:54:00.117Z,1.05
2018-07-02T19:56:02.072Z,1.10
2018-07-02T19:58:04.051Z,1.05
2018-07-02T20:00:06.005Z,1.10
2018-07-02T20:02:07.977Z,0.98
2018-07-02T20:04:09.924Z,1.10
2018-07-02T20:06:11.892Z,1.07
2018-07-02T20:08:13.865Z,1.10
2018-07-02T20:10:15.831Z,1.10
2018-07-02T20:12:17.787Z,1.10
2018-07-02T20:14:19.767Z,1.10
2018-07-02T20:16:21.733Z,0.95
2018-07-02T20:18:23.705Z,1.00
2018-07-02T20:20:25.661Z,1.07
2018-07-02T20:22:27.743Z,1.15
2018-07-02T20:24:29.695Z,1.02
2018-07-02T20:26:31.657Z,0.93
2018-07-02T20:28:33.615Z,1.10
2018-07-02T20:30:35.602Z,1.05
2018-07-02T20:32:37.579Z,1.10
2018-07-02T20:34:39.579Z,0.90
2018-07-02T20:36:41.556Z,0.80
2018-07-02T20:38:43.529Z,1.10
2018-07-02T20:40:45.521Z,0.95
2018-07-02T20:42:47.481Z,0.98
2018-07-02T20:44:49.483Z,1.05
2018-07-02T20:46:51.479Z,1.00
2018-07-02T20:48:53.413Z,0.98
2018-07-02T20:50:55.402Z,1.00
2018-07-02T20:52:57.371Z,1.17
2018-07-02T20:54:59.328Z,1.02
2018-07-02T20:57:01.320Z,0.80
2018-07-02T20:59:03.259Z,0.90
2018-07-02T21:01:05.220Z,1.02
2018-07-02T21:03:07.201Z,0.90
2018-07-02T21:05:09.180Z,1.02
2018-07-02T21:07:11.112Z,0.85
2018-07-02T21:09:13.131Z,0.80
2018-07-02T21:11:15.086Z,1.10
2018-07-02T21:13:17.087Z,0.93
2018-07-02T21:15:19.035Z,1.07
2018-07-02T21:17:21.000Z,1.00
2018-07-02T21:19:22.985Z,0.93
2018-07-02T21:21:24.935Z,0.95
2018-07-02T21:23:26.911Z,1.07
2018-07-02T21:25:28.871Z,1.02
2018-07-02T21:27:30.838Z,0.90
2018-07-02T21:29:32.807Z,0.82
2018-07-02T21:31:34.762Z,1.05
2018-07-02T21:33:36.723Z,1.00
2018-07-02T21:35:38.699Z,1.00
2018-07-02T21:37:40.663Z,0.85
2018-07-02T21:39:42.620Z,0.90
2018-07-02T21:41:44.660Z,0.90
2018-07-02T21:43:46.548Z,1.10
2018-07-02T21:45:48.511Z,0.90
2018-07-02T21:47:50.510Z,0.70
2018-07-02T21:49:52.530Z,0.98
2018-07-02T21:51:54.494Z,0.90
2018-07-02T21:53:56.451Z,0.98
2018-07-02T21:55:58.428Z,0.93
2018-07-02T21:58:00.398Z,0.70
2018-07-02T22:00:02.379Z,1.00
2018-07-02T22:02:04.361Z,0.80
2018-07-02T22:04:06.325Z,0.85
2018-07-02T22:06:08.307Z,0.90
2018-07-02T22:08:10.292Z,0.85
2018-07-02T22:10:12.252Z,1.00
2018-07-02T22:12:14.270Z,0.90
2018-07-02T22:14:16.239Z,0.88
2018-07-02T22:16:18.202Z,1.00
2018-07-02T22:18:20.234Z,0.80
2018-07-02T22:20:22.142Z,0.90
2018-07-02T22:22:24.122Z,0.90
2018-07-02T22:24:26.086Z,0.90
2018-07-02T22:26:28.040Z,0.88
2018-07-02T22:28:30.006Z,0.90
2018-07-02T22:30:31.961Z,0.80
2018-07-02T22:32:33.939Z,0.82
2018-07-02T22:34:35.973Z,0.80
2018-07-02T22:36:37.912Z,0.80
2018-07-02T22:38:39.881Z,0.88
2018-07-02T22:40:41.849Z,1.00
2018-07-02T22:42:43.824Z,1.00
2018-07-02T22:44:45.792Z,0.80
2018-07-02T22:46:47.740Z,0.85
2018-07-02T22:48:49.680Z,1.02
2018-07-02T22:50:51.668Z,0.90
2018-07-02T22:52:53.632Z,0.90
2018-07-02T22:54:55.608Z,1.00
2018-07-02T22:56:57.560Z,0.90
2018-07-02T22:58:59.523Z,0.85
2018-07-02T23:01:01.500Z,0.78
2018-07-02T23:03:03.465Z,1.32
2018-07-02T23:05:05.432Z,0.88
2018-07-02T23:07:07.391Z,0.90
2018-07-02T23:09:09.351Z,0.72
2018-07-02T23:11:11.332Z,0.95
2018-07-02T23:13:13.290Z,0.88
2018-07-02T23:15:15.256Z,0.90
2018-07-02T23:17:17.226Z,0.90
2018-07-02T23:19:19.206Z,1.00
2018-07-02T23:21:21.156Z,0.85
2018-07-02T23:23:23.120Z,0.70
2018-07-02T23:25:25.080Z,0.80
2018-07-02T23:27:27.038Z,1.12
2018-07-02T23:29:29.011Z,0.72
2018-07-02T23:31:30.960Z,0.82
2018-07-02T23:33:32.978Z,0.75
2018-07-02T23:35:35.311Z,0.72
2018-07-02T23:37:37.296Z,0.90
2018-07-02T23:39:39.238Z,0.70
2018-07-02T23:41:41.201Z,0.88
2018-07-02T23:43:43.175Z,0.90
2018-07-02T23:45:45.131Z,1.05
2018-07-02T23:47:47.141Z,1.00
2018-07-02T23:49:49.098Z,1.00
2018-07-02T23:51:51.056Z,0.78
2018-07-02T23:53:53.029Z,0.72
2018-07-02T23:55:55.004Z,0.90
2018-07-02T23:57:56.961Z,1.00
2018-07-02T23:59:58.917Z,0.90
